sensor_id;sensor_type;location;lat;lon;timestamp;P1;durP1;ratioP1;P2;durP2;ratioP2
8478;SDS011;4276;49.354;6.804;2023-04-25T00:01:04;9.77;;;8.57;;
8478;SDS011;4276;49.354;6.804;2023-04-25T00:03:31;8.68;;;7.90;;
8478;SDS011;4276;49.354;6.804;2023-04-25T00:05:58;9.10;;;8.30;;
8478;SDS011;4276;49.354;6.804;2023-04-25T00:08:28;9.75;;;8.85;;
8478;SDS011;4276;49.354;6.804;2023-04-25T00:10:56;9.45;;;8.57;;
8478;SDS011;4276;49.354;6.804;2023-04-25T00:13:23;9.75;;;8.85;;
8478;SDS011;4276;49.354;6.804;2023-04-25T00:15:51;9.18;;;8.27;;
8478;SDS011;4276;49.354;6.804;2023-04-25T00:18:19;9.38;;;8.48;;
8478;SDS011;4276;49.354;6.804;2023-04-25T00:20:46;10.52;;;9.55;;
8478;SDS011;4276;49.354;6.804;2023-04-25T00:23:13;9.88;;;8.88;;
8478;SDS011;4276;49.354;6.804;2023-04-25T00:25:44;9.55;;;8.65;;
8478;SDS011;4276;49.354;6.804;2023-04-25T00:28:11;9.38;;;8.48;;
8478;SDS011;4276;49.354;6.804;2023-04-25T00:30:39;10.35;;;9.45;;
8478;SDS011;4276;49.354;6.804;2023-04-25T00:33:06;9.82;;;9.00;;
8478;SDS011;4276;49.354;6.804;2023-04-25T00:35:32;9.20;;;8.43;;
8478;SDS011;4276;49.354;6.804;2023-04-25T00:37:59;10.15;;;9.25;;
8478;SDS011;4276;49.354;6.804;2023-04-25T00:40:26;10.40;;;9.48;;
8478;SDS011;4276;49.354;6.804;2023-04-25T00:42:53;9.73;;;8.85;;
8478;SDS011;4276;49.354;6.804;2023-04-25T00:45:19;9.73;;;8.70;;
8478;SDS011;4276;49.354;6.804;2023-04-25T00:47:46;7.90;;;7.28;;
8478;SDS011;4276;49.354;6.804;2023-04-25T00:50:13;8.27;;;7.57;;
8478;SDS011;4276;49.354;6.804;2023-04-25T00:52:40;8.82;;;8.10;;
8478;SDS011;4276;49.354;6.804;2023-04-25T00:55:10;8.57;;;7.88;;
8478;SDS011;4276;49.354;6.804;2023-04-25T00:57:37;11.45;;;8.18;;
8478;SDS011;4276;49.354;6.804;2023-04-25T01:00:06;8.38;;;7.57;;
8478;SDS011;4276;49.354;6.804;2023-04-25T01:02:36;8.43;;;7.63;;
8478;SDS011;4276;49.354;6.804;2023-04-25T01:05:04;8.38;;;7.57;;
8478;SDS011;4276;49.354;6.804;2023-04-25T01:07:30;8.80;;;7.93;;
8478;SDS011;4276;49.354;6.804;2023-04-25T01:09:57;8.27;;;7.57;;
8478;SDS011;4276;49.354;6.804;2023-04-25T01:12:24;7.65;;;6.95;;
8478;SDS011;4276;49.354;6.804;2023-04-25T01:14:50;9.45;;;8.02;;
8478;SDS011;4276;49.354;6.804;2023-04-25T01:17:17;8.52;;;7.82;;
8478;SDS011;4276;49.354;6.804;2023-04-25T01:19:44;8.35;;;7.65;;
8478;SDS011;4276;49.354;6.804;2023-04-25T01:22:13;8.73;;;7.93;;
8478;SDS011;4276;49.354;6.804;2023-04-25T01:24:40;7.43;;;6.82;;
8478;SDS011;4276;49.354;6.804;2023-04-25T01:27:07;8.65;;;7.70;;
8478;SDS011;4276;49.354;6.804;2023-04-25T01:29:36;9.70;;;8.80;;
8478;SDS011;4276;49.354;6.804;2023-04-25T01:32:03;8.75;;;7.97;;
8478;SDS011;4276;49.354;6.804;2023-04-25T01:34:31;8.75;;;7.95;;
8478;SDS011;4276;49.354;6.804;2023-04-25T01:36:58;8.20;;;7.50;;
8478;SDS011;4276;49.354;6.804;2023-04-25T01:39:26;9.43;;;8.63;;
8478;SDS011;4276;49.354;6.804;2023-04-25T01:41:52;9.13;;;8.30;;
8478;SDS011;4276;49.354;6.804;2023-04-25T01:44:19;9.02;;;8.13;;
8478;SDS011;4276;49.354;6.804;2023-04-25T01:46:45;8.98;;;8.18;;
8478;SDS011;4276;49.354;6.804;2023-04-25T01:49:12;8.23;;;7.53;;
8478;SDS011;4276;49.354;6.804;2023-04-25T01:51:38;8.88;;;8.13;;
8478;SDS011;4276;49.354;6.804;2023-04-25T01:54:05;9.10;;;8.30;;
8478;SDS011;4276;49.354;6.804;2023-04-25T01:56:32;8.77;;;7.97;;
8478;SDS011;4276;49.354;6.804;2023-04-25T01:58:59;8.90;;;8.20;;
8478;SDS011;4276;49.354;6.804;2023-04-25T02:01:25;8.77;;;7.97;;
8478;SDS011;4276;49.354;6.804;2023-04-25T02:03:52;9.15;;;8.35;;
8478;SDS011;4276;49.354;6.804;2023-04-25T02:06:19;8.35;;;7.65;;
8478;SDS011;4276;49.354;6.804;2023-04-25T02:08:46;8.32;;;7.63;;
8478;SDS011;4276;49.354;6.804;2023-04-25T02:11:12;7.88;;;7.18;;
8478;SDS011;4276;49.354;6.804;2023-04-25T02:13:39;8.25;;;7.55;;
8478;SDS011;4276;49.354;6.804;2023-04-25T02:16:05;8.15;;;7.35;;
8478;SDS011;4276;49.354;6.804;2023-04-25T02:18:34;7.82;;;7.22;;
8478;SDS011;4276;49.354;6.804;2023-04-25T02:21:03;6.90;;;6.30;;
8478;SDS011;4276;49.354;6.804;2023-04-25T02:23:29;7.38;;;6.70;;
8478;SDS011;4276;49.354;6.804;2023-04-25T02:25:56;6.93;;;6.43;;
8478;SDS011;4276;49.354;6.804;2023-04-25T02:28:23;7.15;;;6.53;;
8478;SDS011;4276;49.354;6.804;2023-04-25T02:30:52;7.25;;;6.65;;
8478;SDS011;4276;49.354;6.804;2023-04-25T02:33:18;7.45;;;6.85;;
8478;SDS011;4276;49.354;6.804;2023-04-25T02:35:46;7.82;;;7.13;;
8478;SDS011;4276;49.354;6.804;2023-04-25T02:38:13;6.97;;;6.43;;
8478;SDS011;4276;49.354;6.804;2023-04-25T02:40:39;7.90;;;7.10;;
8478;SDS011;4276;49.354;6.804;2023-04-25T02:43:06;6.97;;;6.38;;
8478;SDS011;4276;49.354;6.804;2023-04-25T02:45:33;7.03;;;6.53;;
8478;SDS011;4276;49.354;6.804;2023-04-25T02:48:00;7.05;;;6.43;;
8478;SDS011;4276;49.354;6.804;2023-04-25T02:50:26;7.43;;;6.72;;
8478;SDS011;4276;49.354;6.804;2023-04-25T02:52:53;7.13;;;6.47;;
8478;SDS011;4276;49.354;6.804;2023-04-25T02:55:19;8.20;;;6.70;;
8478;SDS011;4276;49.354;6.804;2023-04-25T02:57:46;7.22;;;6.57;;
8478;SDS011;4276;49.354;6.804;2023-04-25T03:00:12;7.10;;;6.35;;
8478;SDS011;4276;49.354;6.804;2023-04-25T03:02:40;7.95;;;7.18;;
8478;SDS011;4276;49.354;6.804;2023-04-25T03:05:10;8.75;;;7.97;;
8478;SDS011;4276;49.354;6.804;2023-04-25T03:07:36;8.80;;;8.10;;
8478;SDS011;4276;49.354;6.804;2023-04-25T03:10:06;8.70;;;7.90;;
8478;SDS011;4276;49.354;6.804;2023-04-25T03:12:33;9.27;;;8.50;;
8478;SDS011;4276;49.354;6.804;2023-04-25T03:14:59;11.35;;;10.43;;
8478;SDS011;4276;49.354;6.804;2023-04-25T03:17:26;10.68;;;9.77;;
8478;SDS011;4276;49.354;6.804;2023-04-25T03:19:52;10.45;;;9.55;;
8478;SDS011;4276;49.354;6.804;2023-04-25T03:22:19;10.00;;;9.20;;
8478;SDS011;4276;49.354;6.804;2023-04-25T03:24:45;9.63;;;8.80;;
8478;SDS011;4276;49.354;6.804;2023-04-25T03:27:12;9.35;;;8.45;;
8478;SDS011;4276;49.354;6.804;2023-04-25T03:29:38;10.18;;;9.27;;
8478;SDS011;4276;49.354;6.804;2023-04-25T03:32:06;10.25;;;9.35;;
8478;SDS011;4276;49.354;6.804;2023-04-25T03:34:33;8.82;;;8.02;;
8478;SDS011;4276;49.354;6.804;2023-04-25T03:36:59;8.73;;;7.93;;
8478;SDS011;4276;49.354;6.804;2023-04-25T03:39:26;9.45;;;8.57;;
8478;SDS011;4276;49.354;6.804;2023-04-25T03:41:52;8.95;;;8.15;;
8478;SDS011;4276;49.354;6.804;2023-04-25T03:44:19;8.25;;;7.50;;
8478;SDS011;4276;49.354;6.804;2023-04-25T03:46:45;7.70;;;7.10;;
8478;SDS011;4276;49.354;6.804;2023-04-25T03:49:11;8.52;;;7.80;;
8478;SDS011;4276;49.354;6.804;2023-04-25T03:51:38;7.93;;;7.22;;
8478;SDS011;4276;49.354;6.804;2023-04-25T03:54:04;7.47;;;6.78;;
8478;SDS011;4276;49.354;6.804;2023-04-25T03:56:31;8.00;;;7.30;;
8478;SDS011;4276;49.354;6.804;2023-04-25T03:58:57;9.02;;;8.13;;
8478;SDS011;4276;49.354;6.804;2023-04-25T04:01:24;7.57;;;7.00;;
8478;SDS011;4276;49.354;6.804;2023-04-25T04:03:51;8.77;;;7.97;;
8478;SDS011;4276;49.354;6.804;2023-04-25T04:06:18;8.70;;;7.85;;
8478;SDS011;4276;49.354;6.804;2023-04-25T04:08:46;8.93;;;8.02;;
8478;SDS011;4276;49.354;6.804;2023-04-25T04:11:13;8.43;;;7.82;;
8478;SDS011;4276;49.354;6.804;2023-04-25T04:13:39;8.43;;;7.72;;
8478;SDS011;4276;49.354;6.804;2023-04-25T04:16:06;8.95;;;8.13;;
8478;SDS011;4276;49.354;6.804;2023-04-25T04:18:32;9.63;;;8.65;;
8478;SDS011;4276;49.354;6.804;2023-04-25T04:20:59;8.95;;;8.10;;
8478;SDS011;4276;49.354;6.804;2023-04-25T04:23:26;9.80;;;8.98;;
8478;SDS011;4276;49.354;6.804;2023-04-25T04:25:53;11.07;;;8.55;;
8478;SDS011;4276;49.354;6.804;2023-04-25T04:28:20;9.43;;;8.52;;
8478;SDS011;4276;49.354;6.804;2023-04-25T04:30:48;8.98;;;8.07;;
8478;SDS011;4276;49.354;6.804;2023-04-25T04:33:17;8.32;;;7.63;;
8478;SDS011;4276;49.354;6.804;2023-04-25T04:35:45;9.73;;;8.70;;
8478;SDS011;4276;49.354;6.804;2023-04-25T04:38:13;9.90;;;9.00;;
8478;SDS011;4276;49.354;6.804;2023-04-25T04:40:41;9.45;;;8.55;;
8478;SDS011;4276;49.354;6.804;2023-04-25T04:43:10;9.38;;;8.48;;
8478;SDS011;4276;49.354;6.804;2023-04-25T04:45:37;9.50;;;8.60;;
8478;SDS011;4276;49.354;6.804;2023-04-25T04:48:06;11.43;;;10.10;;
8478;SDS011;4276;49.354;6.804;2023-04-25T04:50:33;12.18;;;11.07;;
8478;SDS011;4276;49.354;6.804;2023-04-25T04:53:00;10.77;;;9.70;;
8478;SDS011;4276;49.354;6.804;2023-04-25T04:55:26;11.63;;;10.35;;
8478;SDS011;4276;49.354;6.804;2023-04-25T04:57:52;9.73;;;8.60;;
8478;SDS011;4276;49.354;6.804;2023-04-25T05:00:19;9.52;;;8.68;;
8478;SDS011;4276;49.354;6.804;2023-04-25T05:02:46;9.30;;;8.45;;
8478;SDS011;4276;49.354;6.804;2023-04-25T05:05:16;10.40;;;9.40;;
8478;SDS011;4276;49.354;6.804;2023-04-25T05:07:42;8.60;;;7.90;;
8478;SDS011;4276;49.354;6.804;2023-04-25T05:10:10;9.00;;;8.25;;
8478;SDS011;4276;49.354;6.804;2023-04-25T05:12:37;8.75;;;8.00;;
8478;SDS011;4276;49.354;6.804;2023-04-25T05:15:03;9.07;;;8.20;;
8478;SDS011;4276;49.354;6.804;2023-04-25T05:17:30;8.40;;;7.72;;
8478;SDS011;4276;49.354;6.804;2023-04-25T05:19:57;9.65;;;8.82;;
8478;SDS011;4276;49.354;6.804;2023-04-25T05:22:23;9.63;;;8.73;;
8478;SDS011;4276;49.354;6.804;2023-04-25T05:24:49;8.70;;;8.00;;
8478;SDS011;4276;49.354;6.804;2023-04-25T05:27:20;10.50;;;9.40;;
8478;SDS011;4276;49.354;6.804;2023-04-25T05:29:47;9.65;;;8.85;;
8478;SDS011;4276;49.354;6.804;2023-04-25T05:32:13;9.57;;;8.77;;
8478;SDS011;4276;49.354;6.804;2023-04-25T05:34:40;9.60;;;8.80;;
8478;SDS011;4276;49.354;6.804;2023-04-25T05:37:08;9.75;;;8.95;;
8478;SDS011;4276;49.354;6.804;2023-04-25T05:39:34;10.73;;;9.70;;
8478;SDS011;4276;49.354;6.804;2023-04-25T05:42:01;9.90;;;9.10;;
8478;SDS011;4276;49.354;6.804;2023-04-25T05:44:28;9.13;;;8.32;;
8478;SDS011;4276;49.354;6.804;2023-04-25T05:46:54;10.20;;;9.30;;
8478;SDS011;4276;49.354;6.804;2023-04-25T05:49:21;10.25;;;9.45;;
8478;SDS011;4276;49.354;6.804;2023-04-25T05:51:47;10.35;;;9.45;;
8478;SDS011;4276;49.354;6.804;2023-04-25T05:54:14;9.82;;;9.02;;
8478;SDS011;4276;49.354;6.804;2023-04-25T05:56:40;11.82;;;10.82;;
8478;SDS011;4276;49.354;6.804;2023-04-25T05:59:07;12.13;;;11.02;;
8478;SDS011;4276;49.354;6.804;2023-04-25T06:01:36;10.82;;;9.88;;
8478;SDS011;4276;49.354;6.804;2023-04-25T06:04:02;12.50;;;11.30;;
8478;SDS011;4276;49.354;6.804;2023-04-25T06:06:30;11.35;;;10.35;;
8478;SDS011;4276;49.354;6.804;2023-04-25T06:08:56;9.90;;;9.07;;
8478;SDS011;4276;49.354;6.804;2023-04-25T06:11:22;13.23;;;12.07;;
8478;SDS011;4276;49.354;6.804;2023-04-25T06:13:49;12.02;;;10.93;;
8478;SDS011;4276;49.354;6.804;2023-04-25T06:16:16;11.02;;;10.02;;
8478;SDS011;4276;49.354;6.804;2023-04-25T06:18:42;10.23;;;9.32;;
8478;SDS011;4276;49.354;6.804;2023-04-25T06:21:09;9.80;;;9.00;;
8478;SDS011;4276;49.354;6.804;2023-04-25T06:23:35;9.07;;;8.38;;
8478;SDS011;4276;49.354;6.804;2023-04-25T06:26:02;10.52;;;9.63;;
8478;SDS011;4276;49.354;6.804;2023-04-25T06:28:29;12.73;;;11.63;;
8478;SDS011;4276;49.354;6.804;2023-04-25T06:30:55;11.38;;;10.25;;
8478;SDS011;4276;49.354;6.804;2023-04-25T06:33:22;10.18;;;9.38;;
8478;SDS011;4276;49.354;6.804;2023-04-25T06:35:50;11.20;;;10.07;;
8478;SDS011;4276;49.354;6.804;2023-04-25T06:38:16;10.07;;;9.15;;
8478;SDS011;4276;49.354;6.804;2023-04-25T06:40:43;9.50;;;8.63;;
8478;SDS011;4276;49.354;6.804;2023-04-25T06:43:10;8.85;;;8.15;;
8478;SDS011;4276;49.354;6.804;2023-04-25T06:45:36;8.85;;;8.15;;
8478;SDS011;4276;49.354;6.804;2023-04-25T06:48:03;8.65;;;7.95;;
8478;SDS011;4276;49.354;6.804;2023-04-25T06:50:29;8.77;;;8.07;;
8478;SDS011;4276;49.354;6.804;2023-04-25T06:52:56;8.63;;;7.82;;
8478;SDS011;4276;49.354;6.804;2023-04-25T06:55:22;9.18;;;8.45;;
8478;SDS011;4276;49.354;6.804;2023-04-25T06:57:49;9.40;;;8.68;;
8478;SDS011;4276;49.354;6.804;2023-04-25T07:00:15;9.55;;;8.75;;
8478;SDS011;4276;49.354;6.804;2023-04-25T07:02:42;9.82;;;8.90;;
8478;SDS011;4276;49.354;6.804;2023-04-25T07:05:09;9.07;;;8.27;;
8478;SDS011;4276;49.354;6.804;2023-04-25T07:07:36;9.60;;;8.82;;
8478;SDS011;4276;49.354;6.804;2023-04-25T07:10:02;8.73;;;8.00;;
8478;SDS011;4276;49.354;6.804;2023-04-25T07:12:29;8.30;;;7.57;;
8478;SDS011;4276;49.354;6.804;2023-04-25T07:14:56;8.35;;;7.65;;
8478;SDS011;4276;49.354;6.804;2023-04-25T07:17:22;7.60;;;7.00;;
8478;SDS011;4276;49.354;6.804;2023-04-25T07:19:49;7.90;;;7.10;;
8478;SDS011;4276;49.354;6.804;2023-04-25T07:22:15;7.10;;;6.57;;
8478;SDS011;4276;49.354;6.804;2023-04-25T07:24:42;7.38;;;6.70;;
8478;SDS011;4276;49.354;6.804;2023-04-25T07:27:08;7.15;;;6.55;;
8478;SDS011;4276;49.354;6.804;2023-04-25T07:29:35;7.65;;;6.95;;
8478;SDS011;4276;49.354;6.804;2023-04-25T07:32:03;6.85;;;6.25;;
8478;SDS011;4276;49.354;6.804;2023-04-25T07:34:30;8.00;;;7.25;;
8478;SDS011;4276;49.354;6.804;2023-04-25T07:36:57;7.03;;;6.53;;
8478;SDS011;4276;49.354;6.804;2023-04-25T07:39:23;6.90;;;6.40;;
8478;SDS011;4276;49.354;6.804;2023-04-25T07:41:50;7.32;;;6.82;;
8478;SDS011;4276;49.354;6.804;2023-04-25T07:44:20;6.85;;;6.30;;
8478;SDS011;4276;49.354;6.804;2023-04-25T07:46:46;7.38;;;6.78;;
8478;SDS011;4276;49.354;6.804;2023-04-25T07:49:13;7.50;;;6.90;;
8478;SDS011;4276;49.354;6.804;2023-04-25T07:51:39;6.90;;;6.40;;
8478;SDS011;4276;49.354;6.804;2023-04-25T07:54:06;7.43;;;6.82;;
8478;SDS011;4276;49.354;6.804;2023-04-25T07:56:32;6.80;;;6.30;;
8478;SDS011;4276;49.354;6.804;2023-04-25T07:59:17;6.57;;;6.07;;
8478;SDS011;4276;49.354;6.804;2023-04-25T08:01:43;7.10;;;6.50;;
8478;SDS011;4276;49.354;6.804;2023-04-25T08:04:10;7.25;;;6.68;;
8478;SDS011;4276;49.354;6.804;2023-04-25T08:06:37;7.60;;;7.00;;
8478;SDS011;4276;49.354;6.804;2023-04-25T08:09:04;8.45;;;7.65;;
8478;SDS011;4276;49.354;6.804;2023-04-25T08:11:30;8.38;;;7.65;;
8478;SDS011;4276;49.354;6.804;2023-04-25T08:13:57;8.15;;;7.45;;
8478;SDS011;4276;49.354;6.804;2023-04-25T08:16:23;8.05;;;7.45;;
8478;SDS011;4276;49.354;6.804;2023-04-25T08:18:50;8.20;;;7.43;;
8478;SDS011;4276;49.354;6.804;2023-04-25T08:21:17;6.88;;;6.38;;
8478;SDS011;4276;49.354;6.804;2023-04-25T08:23:43;6.57;;;6.07;;
8478;SDS011;4276;49.354;6.804;2023-04-25T08:26:11;6.97;;;6.47;;
8478;SDS011;4276;49.354;6.804;2023-04-25T08:28:38;6.40;;;5.90;;
8478;SDS011;4276;49.354;6.804;2023-04-25T08:31:04;6.45;;;6.00;;
8478;SDS011;4276;49.354;6.804;2023-04-25T08:33:31;6.78;;;6.15;;
8478;SDS011;4276;49.354;6.804;2023-04-25T08:35:58;6.90;;;6.30;;
8478;SDS011;4276;49.354;6.804;2023-04-25T08:38:25;6.78;;;6.28;;
8478;SDS011;4276;49.354;6.804;2023-04-25T08:40:51;6.43;;;6.03;;
8478;SDS011;4276;49.354;6.804;2023-04-25T08:43:19;7.70;;;7.00;;
8478;SDS011;4276;49.354;6.804;2023-04-25T08:45:46;7.20;;;6.53;;
8478;SDS011;4276;49.354;6.804;2023-04-25T08:48:14;7.13;;;6.63;;
8478;SDS011;4276;49.354;6.804;2023-04-25T08:50:47;7.72;;;6.70;;
8478;SDS011;4276;49.354;6.804;2023-04-25T08:53:17;7.30;;;6.70;;
8478;SDS011;4276;49.354;6.804;2023-04-25T08:55:48;6.70;;;6.10;;
8478;SDS011;4276;49.354;6.804;2023-04-25T08:58:14;7.85;;;7.15;;
8478;SDS011;4276;49.354;6.804;2023-04-25T09:00:41;7.53;;;6.82;;
8478;SDS011;4276;49.354;6.804;2023-04-25T09:03:08;8.57;;;7.78;;
8478;SDS011;4276;49.354;6.804;2023-04-25T09:05:35;8.18;;;7.47;;
8478;SDS011;4276;49.354;6.804;2023-04-25T09:08:02;8.23;;;7.53;;
8478;SDS011;4276;49.354;6.804;2023-04-25T09:10:29;8.30;;;7.60;;
8478;SDS011;4276;49.354;6.804;2023-04-25T09:13:07;8.10;;;7.50;;
8478;SDS011;4276;49.354;6.804;2023-04-25T09:15:47;8.73;;;8.02;;
8478;SDS011;4276;49.354;6.804;2023-04-25T09:18:30;8.57;;;7.75;;
8478;SDS011;4276;49.354;6.804;2023-04-25T09:21:07;8.23;;;7.57;;
8478;SDS011;4276;49.354;6.804;2023-04-25T09:23:47;7.30;;;6.70;;
8478;SDS011;4276;49.354;6.804;2023-04-25T09:26:15;7.20;;;6.60;;
8478;SDS011;4276;49.354;6.804;2023-04-25T09:28:46;7.90;;;7.15;;
8478;SDS011;4276;49.354;6.804;2023-04-25T09:31:23;7.95;;;7.25;;
8478;SDS011;4276;49.354;6.804;2023-04-25T09:33:59;7.90;;;7.20;;
8478;SDS011;4276;49.354;6.804;2023-04-25T09:36:30;7.38;;;6.78;;
8478;SDS011;4276;49.354;6.804;2023-04-25T09:38:57;7.38;;;6.75;;
8478;SDS011;4276;49.354;6.804;2023-04-25T09:41:25;7.70;;;6.97;;
8478;SDS011;4276;49.354;6.804;2023-04-25T09:43:52;7.43;;;6.72;;
8478;SDS011;4276;49.354;6.804;2023-04-25T09:46:23;7.60;;;6.80;;
8478;SDS011;4276;49.354;6.804;2023-04-25T09:48:51;7.38;;;6.68;;
8478;SDS011;4276;49.354;6.804;2023-04-25T09:51:19;7.60;;;6.97;;
8478;SDS011;4276;49.354;6.804;2023-04-25T09:53:46;7.53;;;6.90;;
8478;SDS011;4276;49.354;6.804;2023-04-25T09:56:17;6.97;;;6.25;;
8478;SDS011;4276;49.354;6.804;2023-04-25T09:58:44;6.93;;;6.32;;
8478;SDS011;4276;49.354;6.804;2023-04-25T10:01:13;6.88;;;6.28;;
8478;SDS011;4276;49.354;6.804;2023-04-25T10:03:40;7.80;;;6.68;;
8478;SDS011;4276;49.354;6.804;2023-04-25T10:06:11;6.30;;;5.78;;
8478;SDS011;4276;49.354;6.804;2023-04-25T10:08:39;6.75;;;6.18;;
8478;SDS011;4276;49.354;6.804;2023-04-25T10:11:07;6.88;;;6.25;;
8478;SDS011;4276;49.354;6.804;2023-04-25T10:13:34;6.43;;;5.82;;
8478;SDS011;4276;49.354;6.804;2023-04-25T10:16:02;6.55;;;5.95;;
8478;SDS011;4276;49.354;6.804;2023-04-25T10:18:32;6.75;;;6.00;;
8478;SDS011;4276;49.354;6.804;2023-04-25T10:21:02;6.50;;;5.90;;
8478;SDS011;4276;49.354;6.804;2023-04-25T10:23:32;6.97;;;6.28;;
8478;SDS011;4276;49.354;6.804;2023-04-25T10:26:00;6.53;;;5.82;;
8478;SDS011;4276;49.354;6.804;2023-04-25T10:28:27;8.85;;;5.82;;
8478;SDS011;4276;49.354;6.804;2023-04-25T10:31:00;6.78;;;6.10;;
8478;SDS011;4276;49.354;6.804;2023-04-25T10:36:21;6.38;;;5.70;;
8478;SDS011;4276;49.354;6.804;2023-04-25T10:38:49;7.15;;;5.70;;
8478;SDS011;4276;49.354;6.804;2023-04-25T10:41:19;6.18;;;5.65;;
8478;SDS011;4276;49.354;6.804;2023-04-25T10:43:46;6.60;;;6.00;;
8478;SDS011;4276;49.354;6.804;2023-04-25T10:48:59;7.57;;;6.65;;
8478;SDS011;4276;49.354;6.804;2023-04-25T10:51:27;7.32;;;6.38;;
8478;SDS011;4276;49.354;6.804;2023-04-25T10:54:06;6.15;;;5.57;;
8478;SDS011;4276;49.354;6.804;2023-04-25T10:59:16;5.93;;;5.43;;
8478;SDS011;4276;49.354;6.804;2023-04-25T11:01:48;7.00;;;6.03;;
8478;SDS011;4276;49.354;6.804;2023-04-25T11:04:21;6.18;;;5.57;;
8478;SDS011;4276;49.354;6.804;2023-04-25T11:09:33;6.03;;;5.25;;
8478;SDS011;4276;49.354;6.804;2023-04-25T11:12:01;5.63;;;5.13;;
8478;SDS011;4276;49.354;6.804;2023-04-25T11:14:27;7.32;;;5.93;;
8478;SDS011;4276;49.354;6.804;2023-04-25T11:16:57;5.88;;;5.28;;
8478;SDS011;4276;49.354;6.804;2023-04-25T11:19:26;5.57;;;5.03;;
8478;SDS011;4276;49.354;6.804;2023-04-25T11:21:56;5.57;;;4.68;;
8478;SDS011;4276;49.354;6.804;2023-04-25T11:24:27;6.13;;;5.10;;
8478;SDS011;4276;49.354;6.804;2023-04-25T11:26:54;6.85;;;5.35;;
8478;SDS011;4276;49.354;6.804;2023-04-25T11:29:26;5.38;;;4.88;;
8478;SDS011;4276;49.354;6.804;2023-04-25T11:31:56;4.70;;;4.30;;
8478;SDS011;4276;49.354;6.804;2023-04-25T11:34:24;5.05;;;4.60;;
8478;SDS011;4276;49.354;6.804;2023-04-25T11:36:51;4.85;;;4.45;;
8478;SDS011;4276;49.354;6.804;2023-04-25T11:39:19;4.57;;;4.15;;
8478;SDS011;4276;49.354;6.804;2023-04-25T11:41:46;4.25;;;3.95;;
8478;SDS011;4276;49.354;6.804;2023-04-25T11:44:16;4.53;;;4.07;;
8478;SDS011;4276;49.354;6.804;2023-04-25T11:46:44;4.80;;;4.40;;
8478;SDS011;4276;49.354;6.804;2023-04-25T11:49:11;6.75;;;4.20;;
8478;SDS011;4276;49.354;6.804;2023-04-25T11:51:59;4.47;;;4.07;;
8478;SDS011;4276;49.354;6.804;2023-04-25T11:54:25;4.50;;;4.10;;
8478;SDS011;4276;49.354;6.804;2023-04-25T11:56:52;4.95;;;4.47;;
8478;SDS011;4276;49.354;6.804;2023-04-25T11:59:22;4.25;;;3.95;;
8478;SDS011;4276;49.354;6.804;2023-04-25T12:01:49;4.28;;;3.95;;
8478;SDS011;4276;49.354;6.804;2023-04-25T12:04:20;4.45;;;4.05;;
8478;SDS011;4276;49.354;6.804;2023-04-25T12:06:49;4.80;;;3.88;;
8478;SDS011;4276;49.354;6.804;2023-04-25T12:09:21;4.55;;;4.10;;
8478;SDS011;4276;49.354;6.804;2023-04-25T12:11:55;4.78;;;4.40;;
8478;SDS011;4276;49.354;6.804;2023-04-25T12:14:25;4.40;;;4.00;;
8478;SDS011;4276;49.354;6.804;2023-04-25T12:16:57;4.10;;;3.80;;
8478;SDS011;4276;49.354;6.804;2023-04-25T12:19:24;4.00;;;3.67;;
8478;SDS011;4276;49.354;6.804;2023-04-25T12:21:52;4.32;;;3.85;;
8478;SDS011;4276;49.354;6.804;2023-04-25T12:24:25;3.90;;;3.60;;
8478;SDS011;4276;49.354;6.804;2023-04-25T12:26:58;5.50;;;3.92;;
8478;SDS011;4276;49.354;6.804;2023-04-25T12:29:29;3.90;;;3.60;;
8478;SDS011;4276;49.354;6.804;2023-04-25T12:32:14;4.45;;;3.72;;
8478;SDS011;4276;49.354;6.804;2023-04-25T12:34:40;4.07;;;3.78;;
8478;SDS011;4276;49.354;6.804;2023-04-25T12:37:07;3.75;;;3.40;;
8478;SDS011;4276;49.354;6.804;2023-04-25T12:39:33;3.67;;;3.28;;
8478;SDS011;4276;49.354;6.804;2023-04-25T12:41:59;4.85;;;3.50;;
8478;SDS011;4276;49.354;6.804;2023-04-25T12:44:27;3.50;;;3.20;;
8478;SDS011;4276;49.354;6.804;2023-04-25T12:46:53;3.50;;;2.92;;
8478;SDS011;4276;49.354;6.804;2023-04-25T12:49:20;2.90;;;2.70;;
8478;SDS011;4276;49.354;6.804;2023-04-25T12:51:47;3.60;;;2.88;;
8478;SDS011;4276;49.354;6.804;2023-04-25T12:54:14;3.08;;;2.78;;
8478;SDS011;4276;49.354;6.804;2023-04-25T12:56:40;3.13;;;2.85;;
8478;SDS011;4276;49.354;6.804;2023-04-25T12:59:07;2.97;;;2.55;;
8478;SDS011;4276;49.354;6.804;2023-04-25T13:01:34;3.72;;;2.47;;
8478;SDS011;4276;49.354;6.804;2023-04-25T13:04:02;2.90;;;2.30;;
8478;SDS011;4276;49.354;6.804;2023-04-25T13:06:28;3.28;;;2.42;;
8478;SDS011;4276;49.354;6.804;2023-04-25T13:08:58;3.78;;;2.55;;
8478;SDS011;4276;49.354;6.804;2023-04-25T13:11:24;2.92;;;2.70;;
8478;SDS011;4276;49.354;6.804;2023-04-25T13:13:56;3.78;;;2.55;;
8478;SDS011;4276;49.354;6.804;2023-04-25T13:16:23;2.92;;;2.60;;
8478;SDS011;4276;49.354;6.804;2023-04-25T13:18:49;3.45;;;2.55;;
8478;SDS011;4276;49.354;6.804;2023-04-25T13:21:16;6.47;;;2.83;;
8478;SDS011;4276;49.354;6.804;2023-04-25T13:23:42;2.70;;;2.50;;
8478;SDS011;4276;49.354;6.804;2023-04-25T13:26:10;3.67;;;2.25;;
8478;SDS011;4276;49.354;6.804;2023-04-25T13:28:37;4.07;;;2.60;;
8478;SDS011;4276;49.354;6.804;2023-04-25T13:31:03;2.88;;;2.58;;
8478;SDS011;4276;49.354;6.804;2023-04-25T13:33:31;2.28;;;2.10;;
8478;SDS011;4276;49.354;6.804;2023-04-25T13:35:57;3.33;;;2.65;;
8478;SDS011;4276;49.354;6.804;2023-04-25T13:38:25;3.05;;;2.75;;
8478;SDS011;4276;49.354;6.804;2023-04-25T13:40:52;2.95;;;2.72;;
8478;SDS011;4276;49.354;6.804;2023-04-25T13:43:19;5.97;;;2.53;;
8478;SDS011;4276;49.354;6.804;2023-04-25T13:45:48;3.25;;;2.50;;
8478;SDS011;4276;49.354;6.804;2023-04-25T13:48:15;4.15;;;2.72;;
8478;SDS011;4276;49.354;6.804;2023-04-25T13:50:41;2.50;;;2.30;;
8478;SDS011;4276;49.354;6.804;2023-04-25T13:53:08;7.45;;;6.78;;
8478;SDS011;4276;49.354;6.804;2023-04-25T13:55:35;3.45;;;3.13;;
8478;SDS011;4276;49.354;6.804;2023-04-25T13:58:03;3.08;;;2.70;;
8478;SDS011;4276;49.354;6.804;2023-04-25T14:00:35;3.03;;;2.30;;
8478;SDS011;4276;49.354;6.804;2023-04-25T14:03:03;3.22;;;2.78;;
8478;SDS011;4276;49.354;6.804;2023-04-25T14:05:34;3.75;;;2.88;;
8478;SDS011;4276;49.354;6.804;2023-04-25T14:08:07;3.20;;;2.90;;
8478;SDS011;4276;49.354;6.804;2023-04-25T14:10:35;4.15;;;3.00;;
8478;SDS011;4276;49.354;6.804;2023-04-25T14:13:02;3.83;;;2.95;;
8478;SDS011;4276;49.354;6.804;2023-04-25T14:15:33;3.40;;;2.83;;
8478;SDS011;4276;49.354;6.804;2023-04-25T14:18:00;3.13;;;2.83;;
8478;SDS011;4276;49.354;6.804;2023-04-25T14:20:26;3.72;;;3.03;;
8478;SDS011;4276;49.354;6.804;2023-04-25T14:22:53;3.60;;;3.15;;
8478;SDS011;4276;49.354;6.804;2023-04-25T14:25:24;6.60;;;4.40;;
8478;SDS011;4276;49.354;6.804;2023-04-25T14:27:51;13.48;;;10.85;;
8478;SDS011;4276;49.354;6.804;2023-04-25T14:30:18;4.25;;;3.33;;
8478;SDS011;4276;49.354;6.804;2023-04-25T14:32:45;4.47;;;3.15;;
8478;SDS011;4276;49.354;6.804;2023-04-25T14:35:12;3.50;;;2.80;;
8478;SDS011;4276;49.354;6.804;2023-04-25T14:37:39;3.42;;;3.08;;
8478;SDS011;4276;49.354;6.804;2023-04-25T14:40:07;3.33;;;3.03;;
8478;SDS011;4276;49.354;6.804;2023-04-25T14:42:39;4.18;;;2.78;;
8478;SDS011;4276;49.354;6.804;2023-04-25T14:45:06;3.85;;;2.28;;
8478;SDS011;4276;49.354;6.804;2023-04-25T14:47:34;2.83;;;2.30;;
8478;SDS011;4276;49.354;6.804;2023-04-25T14:50:01;2.92;;;2.33;;
8478;SDS011;4276;49.354;6.804;2023-04-25T14:52:28;4.10;;;2.50;;
8478;SDS011;4276;49.354;6.804;2023-04-25T14:54:54;4.60;;;2.85;;
8478;SDS011;4276;49.354;6.804;2023-04-25T14:57:21;2.75;;;2.50;;
8478;SDS011;4276;49.354;6.804;2023-04-25T14:59:47;4.70;;;2.80;;
8478;SDS011;4276;49.354;6.804;2023-04-25T15:02:14;3.10;;;2.65;;
8478;SDS011;4276;49.354;6.804;2023-04-25T15:04:40;3.13;;;2.60;;
8478;SDS011;4276;49.354;6.804;2023-04-25T15:07:07;7.15;;;3.50;;
8478;SDS011;4276;49.354;6.804;2023-04-25T15:09:34;3.42;;;2.40;;
8478;SDS011;4276;49.354;6.804;2023-04-25T15:12:01;3.45;;;2.80;;
8478;SDS011;4276;49.354;6.804;2023-04-25T15:14:28;3.17;;;2.88;;
8478;SDS011;4276;49.354;6.804;2023-04-25T15:16:54;5.10;;;3.47;;
8478;SDS011;4276;49.354;6.804;2023-04-25T15:19:21;5.53;;;2.85;;
8478;SDS011;4276;49.354;6.804;2023-04-25T15:21:48;4.65;;;3.10;;
8478;SDS011;4276;49.354;6.804;2023-04-25T15:24:14;5.38;;;3.08;;
8478;SDS011;4276;49.354;6.804;2023-04-25T15:26:42;5.47;;;4.13;;